Terminal Aerodrome Forecast
Issued by NWS

Home | Current Version | Previous Version | Text Only | Print | Product List | Glossary On
Versions: 1 2 3 4 5 6 7 8 9 10 11 12 13 14 15 16 17 18 19 20 21 22 23
000
FTUS44 KLIX 261700
TAFHUM
TAF
KHUM 261721Z 2618/2718 24006KT P6SM SCT035 BKN050
     FM270300 21004KT P6SM SCT250
      TEMPO 2708/2711 5SM BR
     FM271100 23004KT P6SM SCT020
     FM271600 24006KT P6SM SCT030=

USA.gov is the U.S. government's official web portal to all federal, state and local government web resources and services.